Flight Track Log - Related Links

Times and Time Zones

All times are in EDT time to prevent confusion due to time zone crossing. See the CSH802 flight status page for this flight to view local times or setup timezone preferences in your user account.

Time Position Orientation Groundspeed Altitude Reporting Facility
EDT Latitude Longitude Course Direction KTS MPH feet Rate Location/Type
Tue 12:35:00 AM 26.0690 121.5895 North  Level Estimated
Tue 12:36:00 AM 26.1404 121.5922 North  Level Estimated
Tue 12:37:00 AM 26.2144 121.5950 North  Level Estimated
Tue 12:38:00 AM 26.2884 121.5979 North  Level Estimated
Tue 12:39:00 AM 26.3624 121.6007 North  Level Estimated
Tue 12:40:00 AM 26.4364 121.6035 North  Level Estimated
Tue 12:41:00 AM 26.5104 121.6064 North  Level Estimated
Tue 12:42:00 AM 26.5844 121.6092 North  Level Estimated
Tue 12:43:00 AM 26.6584 121.6121 North  Level Estimated
Tue 12:44:00 AM 26.7325 121.6149 North  Level Estimated
Tue 12:45:00 AM 26.8065 121.6178 North  Level Estimated
Tue 12:46:00 AM 26.8805 121.6207 North  Level Estimated
Tue 12:47:00 AM 26.9545 121.6235 North  Level Estimated
Tue 12:48:00 AM 27.0285 121.6264 North  Level Estimated
Tue 12:49:00 AM 27.1025 121.6293 North  Level Estimated
Tue 12:50:00 AM 27.1765 121.6321 North  Level Estimated
Tue 12:51:00 AM 27.2505 121.6350 North  Level Estimated
Tue 12:52:00 AM 27.3245 121.6379 North  Level Estimated
Tue 12:53:00 AM 27.3985 121.6408 North  Level Estimated
Tue 12:54:00 AM 27.4725 121.6437 North  Level Estimated
Tue 12:55:00 AM 27.5465 121.6466 North  Level Estimated
Tue 12:56:00 AM 27.6205 121.6495 North  Level Estimated
Tue 12:57:00 AM 27.6945 121.6524 North  Level Estimated
Tue 12:58:00 AM 27.7686 121.6553 North  Level Estimated
Tue 12:59:00 AM 27.8426 121.6582 North  Level Estimated
Tue 01:00:00 AM 27.9166 121.6611 North  Level Estimated
Tue 01:01:00 AM 27.9906 121.6640 North  Level Estimated
Tue 01:02:00 AM 28.0646 121.6670 North  Level Estimated
Tue 01:03:00 AM 28.1386 121.6699 North  Level Estimated
Tue 01:04:00 AM 28.2126 121.6728 North  Level Estimated
Tue 01:05:00 AM 28.2866 121.6758 North  Level Estimated
Tue 01:06:00 AM 28.3606 121.6787 North  Level Estimated
Tue 01:07:00 AM 28.4346 121.6816 North  Level Estimated
Tue 01:08:00 AM 28.5086 121.6846 North  Level Estimated
Tue 01:09:00 AM 28.5826 121.6875 North  Level Estimated
Tue 01:10:00 AM 28.6566 121.6905 North  Level Estimated
Tue 01:11:00 AM 28.7306 121.6935 North  Level Estimated
Tue 01:12:00 AM 28.8046 121.6964 North  Level Estimated
Tue 01:13:00 AM 28.8787 121.6994 North  Level Estimated
Tue 01:14:00 AM 28.9527 121.7024 North  Level Estimated
Tue 01:15:00 AM 29.0267 121.7053 North  Level Estimated
Tue 01:16:00 AM 29.1007 121.7083 North  Level Estimated
Tue 01:17:00 AM 29.1747 121.7113 North  Level Estimated
Tue 01:18:00 AM 29.2487 121.7143 North  Level Estimated
Tue 01:19:00 AM 29.3227 121.7173 North  Level Estimated
Tue 01:20:00 AM 29.3967 121.7203 North  Level Estimated
Tue 01:21:00 AM 29.4707 121.7233 North  Level Estimated
Tue 01:22:00 AM 29.5447 121.7263 North  Level Estimated
Tue 01:23:00 AM 29.6187 121.7293 North  Level Estimated
Tue 01:24:00 AM 29.6927 121.7323 North  Level Estimated
Tue 01:25:00 AM 29.7667 121.7354 North  Level Estimated
Tue 01:26:00 AM 29.8407 121.7384 North  Level Estimated
Tue 01:27:00 AM 29.9147 121.7414 North  Level Estimated
Tue 01:28:00 AM 29.9887 121.7445 North  Level Estimated
Tue 01:29:00 AM 30.0627 121.7475 North  Level Estimated
Tue 01:30:00 AM 30.1367 121.7505 North  Level Estimated
Tue 01:31:00 AM 30.2107 121.7536 North  Level Estimated
Tue 01:32:00 AM 30.2847 121.7566 North  Level Estimated
Tue 01:33:00 AM 30.3587 121.7597 North  Level Estimated
Tue 01:34:00 AM 30.4328 121.7627 North  Level Estimated
Tue 01:35:00 AM 30.5068 121.7658 North  Level Estimated
Tue 01:36:00 AM 30.5808 121.7689 North  Level Estimated
Tue 01:37:00 AM 30.6548 121.7720 North  Level Estimated
Tue 01:38:00 AM 30.7288 121.7750 North  Level Estimated
Tue 01:39:00 AM 30.8028 121.7781 North  Level Estimated
Tue 01:40:00 AM 30.8750 121.7812 North  Level Estimated
Tue 01:41:00 AM 30.9473 121.7842 North  Level Estimated
Tue 01:42:00 AM 31.0195 121.7872 North  Level Estimated
Tue 01:43:00 AM 31.0935 121.7903 North  Level Estimated
Tue 01:44:00 AM 31.1428 121.7924 North  Level Estimated
Tue 01:45:00 AM 31.1428 121.7924 North  Level Estimated
Tue 01:46:00 AM 31.1428 121.7924 North  Level Estimated
Tue 01:47:00 AM 31.1428 121.7924 North  Level Estimated
Tue 01:48:00 AM 31.1428 121.7924 North  Level Estimated
Tue 01:49:00 AM 31.1428 121.7924 North  Level Estimated
Tue 01:50:00 AM 31.1428 121.7924 North  Level Estimated
Tue 01:51:00 AM 31.1428 121.7924 North  Level Estimated
Tue 01:52:00 AM 31.1428 121.7924 North  Level Estimated

Login

Don't have an account? Register now (free) for customized features, flight alerts, and more!